Ana Sayfa
METAR-TAF:

METAR-TAF

Havaalanları :

Nouakchott, Moritanya

Enlem: 18-18-36N, Boylam: 015-58-11W, yükseklik: 3 m

Güncel hava durumu gözlemi

Rapor saat 18:30 UTC de 48 dakika önce yapıldı.
Rüzgar kuzey/kuzeybatıdan 17 kt
Sıcaklık 30°C
Nem 49%
Basınç 1006 hPa
Görüş mesafesi: 6000 m

METAR: GQNO 251830Z 33017KT 6000 NSC 30/18 Q1006 NOSIG

Saat: 19:18 (19:18 UTC)

Tahmin

Rapor saat 17:00 UTC de 2 saat ve 18 dakika önce yapıldı.
Ayın 25'si saat 18 UTC'den ayın 26'si saat 24 UTC'ye kadar geçerli Tahmin
Rüzgar kuzey/kuzeybatıdan 14 kt
Görüş mesafesi: 7000 m
Dönüşüyor
ayın 26'si saat 07 UTC'den ayın 26'si saat 11 UTC'ye kadar
Rüzgar güneydan 10 kt
Dönüşüyor
ayın 26'si saat 13 UTC'den ayın 26'si saat 15 UTC'ye kadar
Rüzgar batı/kuzeybatıdan 12 kt

TAF: GQNO 251700Z 2518/2624 34014KT 7000 NSC BECMG 2607/2611 18010KT BECMG 2613/2615 30012KT

4.000'den fazla havaalanı için hava durumu gözlemleri ve tahminleri (METAR ve TAF raporları).

Kullanılabilir istasyonlar harita üzerinde sarı ve kırmızı noktalarla gösterilir.

İstasyonun adını görmek için fareyi noktanın üzerinde gezdirin.

Sonrasında hava gözlem ve tahminlerini görmek için tıklayın.

Haritayı değiştirmek için: yaklaştırmak için siyah artı işaretli yeşil düğmeye ve uzaklaştırmak için de eksi işaretli düğmeye hızla tıklayın; bitişik haritalar için yeşil okları kullanın.


METAR-TAF: